Time;durP1;ratioP1;P1;durP2;ratioP2;P2;SDS_P1;SDS_P2;PMS_P1;PMS_P2;Temp;Humidity;BMP_temperature;BMP_pressure;BME280_temperature;BME280_humidity;BME280_pressure;Samples;Min_cycle;Max_cycle;Signal;HPM_P1;HPM_P2
2022/05/29 00:00:14;;;;;;;12.70;6.50;;;15.00;65.60;;;;;;5028210;28;20037;-78
2022/05/29 00:02:41;;;;;;;8.45;6.40;;;14.90;66.00;;;;;;5029208;28;20026;-78
2022/05/29 00:05:08;;;;;;;7.03;6.30;;;14.90;66.00;;;;;;5027311;28;20464;-79
2022/05/29 00:07:34;;;;;;;7.95;6.88;;;14.90;65.90;;;;;;5027586;28;20037;-78
2022/05/29 00:10:02;;;;;;;7.13;6.05;;;15.00;65.60;;;;;;5028316;28;20416;-78
2022/05/29 00:12:28;;;;;;;13.02;6.90;;;14.90;66.10;;;;;;5013142;28;20038;-79
2022/05/29 00:14:55;;;;;;;7.25;6.55;;;14.90;66.10;;;;;;5026252;28;20025;-78
2022/05/29 00:17:21;;;;;;;8.35;6.45;;;14.90;66.10;;;;;;5025757;28;20041;-78
2022/05/29 00:19:47;;;;;;;10.32;6.40;;;15.00;65.80;;;;;;5025749;28;20033;-79
2022/05/29 00:22:16;;;;;;;14.48;6.70;;;15.00;65.40;;;;;;5012481;28;20030;-79
2022/05/29 00:24:44;;;;;;;9.02;6.68;;;15.00;65.30;;;;;;5028727;28;20032;-79
2022/05/29 00:27:11;;;;;;;8.77;6.60;;;14.80;66.00;;;;;;5028526;28;20371;-78
2022/05/29 00:29:38;;;;;;;9.48;6.82;;;14.80;66.20;;;;;;5025975;28;20036;-78
2022/05/29 00:32:05;;;;;;;8.93;6.40;;;14.80;65.90;;;;;;5025445;28;20048;-79
2022/05/29 00:34:31;;;;;;;10.60;5.97;;;14.80;65.80;;;;;;4995207;28;20045;-78
2022/05/29 00:37:00;;;;;;;6.90;5.80;;;14.90;65.90;;;;;;5027164;28;20416;-78
2022/05/29 00:39:26;;;;;;;9.80;6.40;;;14.90;65.60;;;;;;5012460;28;20033;-78
2022/05/29 00:41:53;;;;;;;7.65;6.40;;;14.80;66.30;;;;;;5025754;28;20033;-79
2022/05/29 00:44:24;;;;;;;7.28;6.35;;;14.90;65.70;;;;;;5028395;28;20049;-78
2022/05/29 00:46:58;;;;;;;7.25;6.63;;;15.00;64.90;;;;;;5027878;28;20061;-79
2022/05/29 00:49:30;;;;;;;10.27;6.40;;;15.00;64.90;;;;;;5027230;28;20022;-78
2022/05/29 00:52:08;;;;;;;7.43;6.10;;;14.90;65.10;;;;;;5009417;28;20415;-78
2022/05/29 00:54:42;;;;;;;7.25;6.40;;;14.90;65.20;;;;;;5025307;28;20032;-78
2022/05/29 00:57:14;;;;;;;6.70;6.10;;;14.80;65.50;;;;;;5013255;28;20034;-78
2022/05/29 00:59:41;;;;;;;8.02;6.25;;;14.80;65.40;;;;;;5028347;28;20022;-78
2022/05/29 01:02:07;;;;;;;8.68;6.47;;;14.90;65.10;;;;;;5028000;28;20037;-78
2022/05/29 01:04:34;;;;;;;8.63;6.45;;;15.00;64.60;;;;;;5005777;28;20038;-78
2022/05/29 01:07:06;;;;;;;7.28;6.53;;;15.00;64.90;;;;;;5042375;28;20038;-78
2022/05/29 01:09:34;;;;;;;7.30;6.45;;;15.10;64.30;;;;;;5028925;28;20042;-78
2022/05/29 01:12:10;;;;;;;7.35;6.25;;;14.90;64.90;;;;;;5025483;28;20423;-78
2022/05/29 01:14:47;;;;;;;8.00;6.47;;;14.80;64.90;;;;;;5025796;28;20017;-78
2022/05/29 01:17:44;;;;;;;7.82;6.18;;;14.90;64.70;;;;;;5024854;28;20037;-78
2022/05/29 01:20:13;;;;;;;7.45;6.72;;;14.90;64.90;;;;;;5041612;28;20372;-78
2022/05/29 01:22:48;;;;;;;7.78;6.60;;;15.10;64.40;;;;;;5026496;28;20032;-78
2022/05/29 01:25:26;;;;;;;8.73;6.65;;;15.10;64.10;;;;;;5012383;28;20384;-78
2022/05/29 01:28:10;;;;;;;7.78;6.50;;;15.20;63.70;;;;;;5041615;28;20057;-79
2022/05/29 01:31:02;;;;;;;7.50;6.57;;;15.30;63.30;;;;;;5029894;28;20369;-78
2022/05/29 01:33:34;;;;;;;10.50;6.72;;;15.00;63.70;;;;;;5026198;28;20041;-78
2022/05/29 01:36:09;;;;;;;10.88;6.55;;;14.80;64.60;;;;;;5007943;28;20080;-78
2022/05/29 01:38:41;;;;;;;10.23;6.68;;;14.60;65.30;;;;;;5027785;28;20024;-79
2022/05/29 01:41:23;;;;;;;10.73;6.60;;;14.50;65.70;;;;;;5027982;28;20036;-78
2022/05/29 01:44:02;;;;;;;6.85;6.20;;;14.60;65.70;;;;;;5027921;28;20038;-78
2022/05/29 01:46:32;;;;;;;9.35;6.47;;;14.60;65.30;;;;;;5026841;28;20042;-78
2022/05/29 01:49:07;;;;;;;8.65;6.50;;;14.60;65.30;;;;;;5026295;28;20032;-78
2022/05/29 01:51:43;;;;;;;6.80;6.18;;;14.50;65.90;;;;;;5037462;28;20105;-78
2022/05/29 01:54:32;;;;;;;7.70;7.00;;;14.50;65.70;;;;;;5027295;28;20045;-78
2022/05/29 01:57:08;;;;;;;9.95;6.10;;;14.30;66.20;;;;;;5027947;28;20037;-78
2022/05/29 01:59:38;;;;;;;7.45;6.20;;;14.20;66.70;;;;;;5027918;28;20041;-78
2022/05/29 02:02:08;;;;;;;7.45;6.30;;;14.00;67.00;;;;;;5028216;28;20506;-78
2022/05/29 02:04:37;;;;;;;8.68;6.40;;;14.00;67.60;;;;;;5028083;28;20384;-78
2022/05/29 02:10:22;;;;;;;9.27;7.28;;;13.80;68.40;;;;;;4936918;29;20051;-78
2022/05/29 02:13:02;;;;;;;7.90;6.53;;;13.70;68.60;;;;;;4952370;28;20039;-78
2022/05/29 02:15:33;;;;;;;10.63;6.82;;;13.70;68.40;;;;;;4921683;28;20032;-78
2022/05/29 02:18:00;;;;;;;7.10;6.35;;;13.70;68.80;;;;;;4933997;29;20039;-78
2022/05/29 02:20:28;;;;;;;9.43;6.60;;;13.60;68.90;;;;;;4951180;28;20046;-78
2022/05/29 02:22:58;;;;;;;10.60;6.57;;;13.60;69.00;;;;;;4937467;28;20509;-78
2022/05/29 02:25:25;;;;;;;7.90;6.63;;;13.50;68.90;;;;;;4938345;28;20042;-78
2022/05/29 02:28:12;;;;;;;7.82;7.10;;;13.60;68.80;;;;;;4937434;29;20478;-78
2022/05/29 02:30:49;;;;;;;7.32;6.60;;;13.70;68.50;;;;;;4965249;28;20034;-78
2022/05/29 02:33:41;;;;;;;7.50;6.85;;;13.60;69.10;;;;;;4956684;28;20034;-78
2022/05/29 02:36:24;;;;;;;10.63;6.28;;;13.70;68.40;;;;;;4956177;28;20046;-78
2022/05/29 02:39:11;;;;;;;8.30;6.63;;;13.60;68.40;;;;;;4939573;29;20039;-78
2022/05/29 02:41:37;;;;;;;7.20;6.50;;;13.70;68.20;;;;;;4936715;29;20514;-78
2022/05/29 02:44:24;;;;;;;10.25;6.60;;;13.60;68.50;;;;;;4969601;28;20563;-79
2022/05/29 02:46:52;;;;;;;6.90;6.30;;;13.60;68.20;;;;;;5039310;28;20052;-78
2022/05/29 02:49:24;;;;;;;7.60;6.68;;;13.70;68.00;;;;;;5028560;28;20473;-78
2022/05/29 02:51:55;;;;;;;7.65;6.85;;;13.60;68.00;;;;;;5031341;28;20053;-78
2022/05/29 02:54:27;;;;;;;6.93;6.35;;;13.60;68.30;;;;;;5029579;28;20029;-78
2022/05/29 02:56:53;;;;;;;9.00;7.00;;;13.50;68.60;;;;;;5011744;28;20029;-78
2022/05/29 02:59:23;;;;;;;7.20;6.60;;;13.50;68.50;;;;;;5011188;28;20021;-78
2022/05/29 03:02:12;;;;;;;7.63;6.80;;;13.60;68.00;;;;;;5011052;28;20045;-78
2022/05/29 03:05:01;;;;;;;7.63;6.80;;;13.60;67.90;;;;;;5028481;28;20476;-78
2022/05/29 03:07:51;;;;;;;7.10;6.40;;;13.50;67.80;;;;;;5016916;28;20084;-78
2022/05/29 03:10:31;;;;;;;8.23;6.75;;;13.60;67.80;;;;;;5014268;28;20045;-78
2022/05/29 03:13:03;;;;;;;7.30;6.60;;;13.60;67.50;;;;;;5028217;28;20091;-78
2022/05/29 03:15:40;;;;;;;7.53;6.72;;;13.70;67.30;;;;;;5030768;28;20034;-78
2022/05/29 03:18:29;;;;;;;7.50;6.60;;;13.70;67.10;;;;;;5032303;28;20036;-78
2022/05/29 03:21:11;;;;;;;7.30;6.60;;;13.70;66.60;;;;;;5031501;28;20510;-78
2022/05/29 03:23:49;;;;;;;7.30;6.60;;;13.60;66.40;;;;;;5027306;28;20025;-78
2022/05/29 03:26:35;;;;;;;6.97;6.38;;;13.50;66.50;;;;;;5027075;28;20025;-78
2022/05/29 03:29:39;;;;;;;7.95;6.60;;;13.30;67.50;;;;;;5011669;28;20048;-79
2022/05/29 03:32:06;;;;;;;7.57;6.85;;;13.50;67.10;;;;;;5018564;28;20512;-78
2022/05/29 03:34:32;;;;;;;7.10;6.50;;;13.30;67.60;;;;;;5003630;28;20039;-78
2022/05/29 03:36:58;;;;;;;9.48;6.60;;;13.30;67.70;;;;;;5039697;28;20077;-78
2022/05/29 03:39:24;;;;;;;8.15;6.55;;;13.30;67.60;;;;;;5025872;28;20037;-78
2022/05/29 03:41:52;;;;;;;8.82;6.63;;;13.20;68.20;;;;;;5008016;28;20113;-78
2022/05/29 03:44:22;;;;;;;9.27;6.72;;;13.30;67.70;;;;;;4990367;28;20056;-78
2022/05/29 03:46:48;;;;;;;7.93;6.72;;;13.40;67.40;;;;;;5005765;28;20037;-79
2022/05/29 03:49:17;;;;;;;8.45;6.82;;;13.30;67.40;;;;;;5008222;28;20022;-78
2022/05/29 03:51:43;;;;;;;11.30;6.78;;;13.20;67.60;;;;;;5009511;28;20026;-78
2022/05/29 03:54:09;;;;;;;7.10;6.40;;;13.10;67.90;;;;;;4992228;28;20037;-76
2022/05/29 03:56:35;;;;;;;7.47;6.70;;;13.00;67.90;;;;;;5006861;28;20037;-78
2022/05/29 03:59:01;;;;;;;8.32;6.38;;;13.00;68.30;;;;;;5006741;28;20381;-78
2022/05/29 04:01:28;;;;;;;8.00;6.45;;;13.00;67.60;;;;;;5020105;28;20041;-78
2022/05/29 04:03:54;;;;;;;7.00;6.30;;;12.90;67.90;;;;;;5029738;28;20033;-78
2022/05/29 04:06:24;;;;;;;6.57;6.13;;;12.80;68.60;;;;;;5011552;28;20038;-78
2022/05/29 04:14:21;;;;;;;9.10;6.10;;;12.60;68.70;;;;;;5013851;28;20523;-78
2022/05/29 04:16:48;;;;;;;6.53;5.93;;;12.50;68.80;;;;;;5028195;28;20057;-78
2022/05/29 04:19:14;;;;;;;6.47;5.90;;;12.40;68.90;;;;;;5026482;28;20494;-78
2022/05/29 04:21:40;;;;;;;6.95;6.20;;;12.40;69.90;;;;;;5015301;28;20404;-78
2022/05/29 04:24:06;;;;;;;10.93;6.45;;;12.30;69.40;;;;;;5023005;28;20053;-78
2022/05/29 04:26:33;;;;;;;7.55;6.35;;;12.30;69.30;;;;;;5038221;28;20037;-78
2022/05/29 04:29:02;;;;;;;6.72;6.13;;;12.20;69.30;;;;;;5027061;28;20498;-78
2022/05/29 04:31:28;;;;;;;6.40;5.85;;;12.30;69.10;;;;;;5008778;28;20037;-78
2022/05/29 04:33:54;;;;;;;6.95;6.45;;;12.30;69.20;;;;;;5009677;28;20048;-78
2022/05/29 04:36:20;;;;;;;6.43;5.93;;;12.30;69.00;;;;;;5011305;28;20040;-78
2022/05/29 04:38:46;;;;;;;6.68;6.00;;;12.20;69.00;;;;;;5011675;28;20045;-78
2022/05/29 04:41:12;;;;;;;6.93;6.32;;;12.10;69.10;;;;;;5025751;28;20040;-78
2022/05/29 04:43:39;;;;;;;7.95;6.15;;;12.00;68.80;;;;;;5009445;28;20045;-78
2022/05/29 04:46:05;;;;;;;6.70;5.90;;;12.00;69.10;;;;;;5027177;28;20045;-78
2022/05/29 04:48:31;;;;;;;7.43;6.45;;;12.10;68.90;;;;;;5028989;28;20060;-78
2022/05/29 04:51:01;;;;;;;6.20;5.80;;;12.00;68.70;;;;;;5008659;28;20041;-78
2022/05/29 04:53:28;;;;;;;6.40;5.90;;;12.00;68.80;;;;;;5028540;28;20044;-78
2022/05/29 04:55:55;;;;;;;6.72;6.07;;;12.00;68.70;;;;;;5028372;28;20038;-78
2022/05/29 04:58:22;;;;;;;6.78;6.18;;;12.00;68.50;;;;;;5026715;28;20037;-78
2022/05/29 05:00:48;;;;;;;7.13;6.53;;;12.10;68.30;;;;;;5027603;28;20030;-78
2022/05/29 05:03:14;;;;;;;6.45;6.05;;;12.00;67.90;;;;;;5010490;28;20037;-78
2022/05/29 05:05:41;;;;;;;6.43;5.93;;;12.10;68.00;;;;;;5025373;28;20032;-78
2022/05/29 05:08:07;;;;;;;7.07;6.25;;;12.20;67.50;;;;;;5027885;28;20049;-78
2022/05/29 05:10:33;;;;;;;6.85;6.20;;;12.30;66.80;;;;;;5028314;28;20038;-78
2022/05/29 05:12:59;;;;;;;7.65;6.20;;;12.40;65.90;;;;;;5026579;28;20388;-78
2022/05/29 05:15:25;;;;;;;6.20;5.80;;;12.50;64.50;;;;;;5027717;28;20025;-78
2022/05/29 05:17:52;;;;;;;6.70;6.20;;;12.60;64.20;;;;;;5025194;28;20044;-78
2022/05/29 05:20:18;;;;;;;7.00;6.28;;;12.80;63.00;;;;;;5025289;28;20037;-78
2022/05/29 05:22:44;;;;;;;6.80;6.30;;;12.80;62.20;;;;;;5026704;28;20045;-79
2022/05/29 05:25:10;;;;;;;6.78;6.20;;;12.90;62.30;;;;;;5026661;28;20029;-78
2022/05/29 05:27:36;;;;;;;7.50;6.80;;;13.10;61.50;;;;;;5028961;28;20037;-78
2022/05/29 05:30:03;;;;;;;7.38;6.70;;;13.10;60.70;;;;;;5027714;28;20041;-78
2022/05/29 05:32:29;;;;;;;7.43;7.03;;;13.30;60.40;;;;;;5025831;28;20399;-79
2022/05/29 05:34:55;;;;;;;7.75;7.10;;;13.20;59.10;;;;;;5028025;28;20033;-78
2022/05/29 05:37:21;;;;;;;8.50;7.80;;;13.40;59.20;;;;;;5010042;28;20064;-79
2022/05/29 05:39:47;;;;;;;8.95;8.38;;;13.50;57.90;;;;;;5030507;28;20029;-79
2022/05/29 05:42:13;;;;;;;8.65;8.05;;;13.60;57.30;;;;;;5013684;28;20033;-79
2022/05/29 05:44:39;;;;;;;8.82;8.10;;;13.70;57.30;;;;;;5028692;28;20030;-79
2022/05/29 05:47:07;;;;;;;9.40;8.57;;;13.70;56.60;;;;;;5012201;28;20049;-79
2022/05/29 05:49:33;;;;;;;8.60;8.10;;;13.70;56.30;;;;;;5028955;28;20033;-79
2022/05/29 05:51:59;;;;;;;8.90;8.40;;;13.90;56.20;;;;;;5029383;28;20052;-79
2022/05/29 05:54:29;;;;;;;8.65;8.15;;;14.00;55.50;;;;;;5014824;28;20032;-79
2022/05/29 05:56:55;;;;;;;8.88;8.27;;;14.00;55.30;;;;;;5012646;28;20464;-79
2022/05/29 05:59:21;;;;;;;8.75;8.15;;;14.10;55.80;;;;;;5028445;28;20037;-79
2022/05/29 06:01:47;;;;;;;9.80;8.88;;;14.20;55.80;;;;;;5011800;28;20033;-79
2022/05/29 06:04:14;;;;;;;9.32;8.63;;;14.30;55.20;;;;;;5029958;28;20029;-79
2022/05/29 06:06:40;;;;;;;9.15;8.38;;;14.50;55.30;;;;;;5031599;28;20032;-80
2022/05/29 06:09:06;;;;;;;10.40;9.40;;;14.60;55.20;;;;;;5013036;28;20044;-79
2022/05/29 06:11:33;;;;;;;9.98;9.38;;;14.70;54.80;;;;;;5010101;28;20034;-79
2022/05/29 06:13:59;;;;;;;10.15;9.40;;;14.70;54.80;;;;;;5012093;28;20037;-79
2022/05/29 06:16:25;;;;;;;10.82;10.23;;;14.70;54.70;;;;;;5029539;28;20494;-79
2022/05/29 06:18:51;;;;;;;10.00;9.30;;;14.70;54.20;;;;;;5031970;28;20052;-79
2022/05/29 06:21:17;;;;;;;10.93;9.95;;;14.70;54.20;;;;;;5030692;28;20365;-79
2022/05/29 06:23:44;;;;;;;11.00;10.30;;;14.70;54.00;;;;;;5028222;28;20033;-79
2022/05/29 06:26:13;;;;;;;10.88;10.27;;;14.80;52.90;;;;;;5029550;28;20502;-79
2022/05/29 06:28:40;;;;;;;9.73;9.13;;;14.80;52.10;;;;;;5030947;28;20025;-79
2022/05/29 06:31:06;;;;;;;9.75;9.25;;;14.70;52.20;;;;;;5008964;28;20032;-79
2022/05/29 06:33:33;;;;;;;10.55;9.88;;;15.00;52.20;;;;;;5015276;28;20370;-79
2022/05/29 06:36:13;;;;;;;10.40;9.68;;;15.30;51.10;;;;;;4998036;28;20045;-79
2022/05/29 06:38:39;;;;;;;10.57;9.88;;;15.30;50.00;;;;;;5010749;28;20052;-79
2022/05/29 06:41:07;;;;;;;11.00;10.40;;;15.40;49.70;;;;;;5030607;28;20021;-79
2022/05/29 06:43:33;;;;;;;13.50;12.90;;;15.60;49.00;;;;;;5030726;28;20392;-79
2022/05/29 06:46:00;;;;;;;11.23;10.57;;;15.50;47.80;;;;;;5028334;28;20026;-80
2022/05/29 06:48:26;;;;;;;13.75;12.45;;;15.40;48.40;;;;;;5013752;28;20041;-79
2022/05/29 06:50:52;;;;;;;11.13;10.30;;;15.30;48.40;;;;;;5009597;28;20038;-79
2022/05/29 06:53:19;;;;;;;11.02;10.23;;;15.30;48.40;;;;;;5060138;28;20045;-79
2022/05/29 06:55:53;;;;;;;11.30;10.50;;;15.40;48.90;;;;;;5030279;28;20031;-80
2022/05/29 06:58:19;;;;;;;10.75;10.25;;;15.60;48.80;;;;;;5028362;28;20369;-79
2022/05/29 07:08:59;;;;;;;11.25;10.65;;;15.90;46.70;;;;;;5030347;28;20044;-79
2022/05/29 07:11:26;;;;;;;11.40;10.65;;;15.80;46.30;;;;;;5028648;28;20522;-79
2022/05/29 07:13:53;;;;;;;11.15;10.52;;;15.70;47.20;;;;;;5011051;28;20033;-79
2022/05/29 07:16:19;;;;;;;12.60;11.88;;;15.80;46.70;;;;;;5027655;28;20026;-79
2022/05/29 07:18:50;;;;;;;11.70;10.90;;;15.90;47.00;;;;;;5029532;28;20037;-80
2022/05/29 07:21:16;;;;;;;11.77;10.98;;;16.00;46.50;;;;;;5029695;28;20027;-80
2022/05/29 07:23:43;;;;;;;10.88;10.27;;;16.00;45.80;;;;;;5027038;28;20033;-80
2022/05/29 07:26:09;;;;;;;11.43;10.70;;;16.10;45.90;;;;;;5010582;28;20033;-79
2022/05/29 07:28:35;;;;;;;12.55;11.95;;;16.10;45.50;;;;;;4993331;28;20061;-80
2022/05/29 07:31:03;;;;;;;11.77;11.07;;;16.10;45.40;;;;;;5028436;28;20531;-80
2022/05/29 07:33:29;;;;;;;11.60;10.70;;;16.30;45.00;;;;;;5030016;28;20036;-79
2022/05/29 07:35:55;;;;;;;11.43;10.70;;;16.40;44.70;;;;;;5026772;28;20045;-79
2022/05/29 07:38:22;;;;;;;11.13;10.40;;;16.50;44.60;;;;;;5010447;28;20037;-80
2022/05/29 07:40:48;;;;;;;11.73;10.70;;;16.50;44.10;;;;;;5026844;28;20040;-80
2022/05/29 07:43:21;;;;;;;12.52;11.77;;;16.50;43.90;;;;;;5027400;28;20392;-79
2022/05/29 07:45:57;;;;;;;11.55;10.82;;;16.40;44.00;;;;;;5010496;28;20040;-80
2022/05/29 07:48:27;;;;;;;11.65;10.77;;;16.50;44.80;;;;;;5025628;28;20038;-80
2022/05/29 07:50:53;;;;;;;11.90;10.80;;;16.70;43.50;;;;;;5041891;28;20040;-79
2022/05/29 07:53:20;;;;;;;11.98;11.27;;;16.90;43.80;;;;;;5027889;28;20040;-80
2022/05/29 07:55:46;;;;;;;11.63;10.82;;;17.10;43.00;;;;;;5029173;28;20036;-80
2022/05/29 07:58:13;;;;;;;12.85;12.18;;;17.10;42.90;;;;;;5027259;28;20034;-80
2022/05/29 08:00:39;;;;;;;12.07;11.40;;;17.00;42.60;;;;;;5029694;28;20033;-79
2022/05/29 08:03:06;;;;;;;11.57;10.93;;;17.20;42.60;;;;;;5026679;28;20423;-79
2022/05/29 08:05:34;;;;;;;11.73;11.05;;;17.20;42.60;;;;;;5026310;28;20036;-80
2022/05/29 08:08:03;;;;;;;12.68;11.98;;;17.40;42.90;;;;;;5025941;28;20052;-80
2022/05/29 08:10:29;;;;;;;13.00;12.20;;;17.50;41.20;;;;;;5028302;28;20407;-80
2022/05/29 08:12:55;;;;;;;12.70;12.00;;;17.10;41.70;;;;;;5028265;28;20029;-80
2022/05/29 08:15:21;;;;;;;11.77;11.20;;;17.10;41.10;;;;;;5028794;28;20049;-79
2022/05/29 08:17:47;;;;;;;12.82;11.93;;;17.20;40.80;;;;;;5028740;28;20038;-80
2022/05/29 08:20:14;;;;;;;11.60;10.90;;;17.20;41.20;;;;;;5028802;28;20511;-79
2022/05/29 08:22:40;;;;;;;12.25;11.55;;;17.30;41.10;;;;;;5025878;28;20045;-80
2022/05/29 08:30:43;;;;;;;12.13;11.50;;;17.20;40.40;;;;;;5030644;28;20052;-80
2022/05/29 08:33:23;;;;;;;13.27;12.65;;;17.50;40.40;;;;;;5059791;28;20480;-80
2022/05/29 08:36:14;;;;;;;12.90;12.20;;;17.80;40.00;;;;;;5028532;28;20056;-80
2022/05/29 08:38:44;;;;;;;;;;;18.10;39.70;;;;;;5012518;28;20037;-80
2022/05/29 08:41:48;;;;;;;12.88;12.10;;;17.80;39.30;;;;;;5044396;28;19916;-80
2022/05/29 08:44:16;;;;;;;14.20;13.27;;;17.90;40.10;;;;;;5018165;28;20037;-80
2022/05/29 08:46:44;;;;;;;13.32;12.60;;;18.00;38.80;;;;;;5027876;28;20050;-80
2022/05/29 08:49:14;;;;;;;12.90;12.15;;;17.90;38.40;;;;;;5026376;28;20788;-80
2022/05/29 08:51:59;;;;;;;13.68;12.98;;;18.00;38.80;;;;;;5028964;28;20036;-80
2022/05/29 08:54:51;;;;;;;14.00;13.30;;;18.10;38.20;;;;;;5029235;28;20037;-80
2022/05/29 08:57:29;;;;;;;12.90;12.20;;;18.20;37.70;;;;;;5028975;28;20021;-80
2022/05/29 08:59:57;;;;;;;13.85;13.15;;;18.10;38.40;;;;;;5026784;28;20040;-80
2022/05/29 09:02:45;;;;;;;13.85;13.15;;;18.20;38.30;;;;;;5027775;28;20030;-80
2022/05/29 09:05:18;;;;;;;14.00;13.02;;;18.30;38.50;;;;;;5026583;28;20044;-80
2022/05/29 09:07:44;;;;;;;13.85;12.93;;;18.20;38.30;;;;;;5027962;28;20468;-80
2022/05/29 09:10:16;;;;;;;13.38;12.57;;;18.20;38.40;;;;;;5026054;28;20052;-80
2022/05/29 09:12:45;;;;;;;13.52;12.68;;;18.00;38.80;;;;;;5013807;28;20048;-81
2022/05/29 09:15:15;;;;;;;12.98;12.23;;;18.00;39.00;;;;;;5031550;28;20045;-80
2022/05/29 09:17:51;;;;;;;12.43;11.82;;;18.20;38.70;;;;;;5013020;28;20022;-80
2022/05/29 09:20:32;;;;;;;13.85;12.98;;;18.40;38.40;;;;;;5013574;28;20464;-80
2022/05/29 09:23:02;;;;;;;;;;;18.50;37.30;;;;;;5014190;28;20535;-81
2022/05/29 09:25:36;;;;;;;14.30;13.32;;;18.60;37.70;;;;;;5045673;28;19920;-80
2022/05/29 09:28:18;;;;;;;13.25;12.55;;;18.60;36.50;;;;;;5030195;28;20018;-80
2022/05/29 09:30:44;;;;;;;13.32;12.63;;;18.60;36.60;;;;;;5010334;28;20049;-80
2022/05/29 09:33:25;;;;;;;13.30;12.50;;;18.50;36.10;;;;;;5013439;28;20033;-80
2022/05/29 09:35:56;;;;;;;13.20;12.60;;;18.40;37.00;;;;;;5029198;28;20041;-80
2022/05/29 09:38:34;;;;;;;12.90;12.30;;;18.50;36.80;;;;;;5029035;28;20025;-80
2022/05/29 09:41:15;;;;;;;13.07;12.38;;;18.70;36.10;;;;;;5015221;28;20037;-80
2022/05/29 09:43:51;;;;;;;;;;;19.00;37.50;;;;;;5030676;28;20038;-81
2022/05/29 09:46:19;;;;;;;14.57;13.48;;;19.30;36.80;;;;;;5044525;28;19918;-80
2022/05/29 09:51:42;;;;;;;14.13;13.07;;;19.40;36.40;;;;;;5035585;28;20514;-80
2022/05/29 09:54:09;;;;;;;14.30;13.05;;;19.20;36.30;;;;;;5015452;28;20033;-81
2022/05/29 09:56:35;;;;;;;15.35;14.35;;;19.10;35.10;;;;;;4998541;28;20514;-81
2022/05/29 09:59:13;;;;;;;13.05;12.35;;;19.20;36.00;;;;;;5011709;28;20046;-81
2022/05/29 10:01:45;;;;;;;13.55;12.75;;;19.20;36.50;;;;;;5031186;28;20029;-81
2022/05/29 10:04:13;;;;;;;14.15;13.27;;;19.30;36.80;;;;;;5029912;28;20038;-81
2022/05/29 10:06:42;;;;;;;13.30;12.60;;;19.50;35.70;;;;;;5031745;28;20036;-81
2022/05/29 10:09:18;;;;;;;14.20;13.30;;;19.30;35.60;;;;;;5013036;28;20033;-81
2022/05/29 10:11:58;;;;;;;14.15;13.10;;;19.40;35.20;;;;;;5014693;28;20467;-81
2022/05/29 10:14:37;;;;;;;12.48;11.77;;;19.40;35.50;;;;;;5028697;28;20036;-81
2022/05/29 10:17:33;;;;;;;12.98;12.27;;;19.20;35.30;;;;;;5027693;28;20033;-81
2022/05/29 10:19:59;;;;;;;13.65;12.85;;;19.30;35.80;;;;;;5030796;28;20468;-81
2022/05/29 10:22:36;;;;;;;13.23;12.35;;;19.30;35.00;;;;;;5011089;28;20251;-80
2022/05/29 10:25:25;;;;;;;13.75;12.95;;;18.90;35.50;;;;;;5029416;28;20034;-81
2022/05/29 10:27:57;;;;;;;13.25;12.65;;;19.20;36.30;;;;;;5026664;28;20042;-81
2022/05/29 10:30:35;;;;;;;;;;;19.20;35.80;;;;;;4994771;28;20495;-81
2022/05/29 10:33:07;;;;;;;13.38;12.45;;;19.10;36.50;;;;;;5027897;28;20375;-81
2022/05/29 10:35:38;;;;;;;13.98;13.27;;;19.30;35.80;;;;;;5012031;28;20025;-81
2022/05/29 10:38:24;;;;;;;13.85;13.05;;;19.50;35.30;;;;;;5028015;28;20032;-81
2022/05/29 10:40:52;;;;;;;14.32;13.50;;;19.30;36.00;;;;;;5030818;28;20388;-81
2022/05/29 10:43:40;;;;;;;14.15;13.32;;;19.50;36.10;;;;;;5028591;28;20030;-81
2022/05/29 10:46:18;;;;;;;14.30;13.35;;;19.60;35.20;;;;;;5029127;28;20480;-81
2022/05/29 10:49:07;;;;;;;15.07;14.10;;;19.90;34.80;;;;;;5027571;28;20045;-81
2022/05/29 10:51:58;;;;;;;15.13;14.32;;;20.10;34.80;;;;;;5044058;28;20033;-81
2022/05/29 10:54:51;;;;;;;14.20;13.30;;;20.10;34.20;;;;;;5031320;28;20481;-81
2022/05/29 10:57:40;;;;;;;15.27;14.35;;;19.90;33.70;;;;;;5031110;28;20037;-81
2022/05/29 11:00:14;;;;;;;14.38;13.60;;;20.10;34.50;;;;;;5030499;28;20048;-81
2022/05/29 11:03:21;;;;;;;14.65;13.40;;;20.10;34.80;;;;;;5030260;28;20026;-81
2022/05/29 11:06:09;;;;;;;14.05;13.30;;;19.80;34.90;;;;;;5026482;28;20045;-81
2022/05/29 11:09:00;;;;;;;13.13;12.30;;;19.60;35.50;;;;;;5028493;28;20388;-81
2022/05/29 11:11:38;;;;;;;13.93;13.00;;;19.20;35.40;;;;;;5007539;28;20049;-81
2022/05/29 11:14:36;;;;;;;14.25;12.98;;;19.20;35.50;;;;;;5020420;28;20040;-80
2022/05/29 11:17:29;;;;;;;13.30;12.45;;;19.20;35.00;;;;;;5029533;28;20505;-81
2022/05/29 11:20:10;;;;;;;13.73;12.93;;;19.30;35.10;;;;;;5009030;28;20034;-80
2022/05/29 11:22:59;;;;;;;13.57;12.80;;;19.50;35.10;;;;;;5026686;28;20042;-80
2022/05/29 11:25:37;;;;;;;13.20;12.40;;;19.50;35.30;;;;;;4955872;28;20031;-80
2022/05/29 11:28:41;;;;;;;14.30;13.30;;;19.60;35.10;;;;;;4968617;28;20034;-81
2022/05/29 11:31:16;;;;;;;13.45;12.75;;;19.90;34.90;;;;;;4893157;29;20047;-80
2022/05/29 11:34:06;;;;;;;13.98;13.02;;;19.70;35.00;;;;;;4890551;29;20120;-80
2022/05/29 11:36:37;;;;;;;14.30;13.40;;;19.90;35.00;;;;;;4894012;29;20055;-81
2022/05/29 11:39:22;;;;;;;17.20;16.10;;;19.80;35.00;;;;;;4877854;29;20395;-81
2022/05/29 11:42:15;;;;;;;14.50;13.70;;;20.00;35.30;;;;;;4878219;29;20051;-81
2022/05/29 11:44:51;;;;;;;14.90;14.10;;;19.90;35.60;;;;;;4889851;29;20492;-81
2022/05/29 11:53:27;;;;;;;13.90;13.02;;;20.20;35.20;;;;;;4880896;29;20055;-81
2022/05/29 11:55:54;;;;;;;;;;;20.20;34.70;;;;;;4893910;29;20052;-80
2022/05/29 11:58:47;;;;;;;13.80;13.00;;;20.30;33.50;;;;;;4893289;29;19911;-81
2022/05/29 12:01:18;;;;;;;15.32;14.52;;;20.30;34.70;;;;;;4865468;29;20043;-81
2022/05/29 12:03:57;;;;;;;14.77;13.50;;;20.40;34.40;;;;;;4946873;28;20043;-80
2022/05/29 12:06:42;;;;;;;14.68;13.88;;;19.80;34.20;;;;;;5043566;28;20530;-80
2022/05/29 12:09:16;;;;;;;14.23;13.43;;;19.90;35.40;;;;;;5029334;28;20369;-81
2022/05/29 12:11:47;;;;;;;15.88;14.60;;;20.10;32.90;;;;;;5028973;28;20487;-81
2022/05/29 12:14:23;;;;;;;14.10;13.38;;;20.10;33.30;;;;;;5026428;28;20049;-81
2022/05/29 12:16:52;;;;;;;14.13;13.43;;;20.30;34.50;;;;;;5025820;28;20396;-81
2022/05/29 12:19:22;;;;;;;14.48;13.63;;;20.50;34.40;;;;;;5026734;28;20017;-81
2022/05/29 12:21:51;;;;;;;16.02;15.13;;;20.80;34.10;;;;;;5014159;28;20029;-81
2022/05/29 12:24:21;;;;;;;14.85;13.95;;;20.50;34.10;;;;;;5011298;28;20025;-81
2022/05/29 12:26:49;;;;;;;15.23;14.40;;;20.30;34.50;;;;;;5010192;28;20040;-81
2022/05/29 12:29:29;;;;;;;13.40;12.65;;;20.30;34.50;;;;;;5025474;28;20064;-81
2022/05/29 12:31:59;;;;;;;14.07;13.32;;;20.30;35.50;;;;;;5010047;28;20044;-81
2022/05/29 12:34:43;;;;;;;14.50;13.70;;;20.50;35.10;;;;;;5027634;28;20018;-80
2022/05/29 12:37:41;;;;;;;15.35;14.55;;;20.70;35.10;;;;;;5010887;28;20029;-81
2022/05/29 12:40:43;;;;;;;14.65;13.70;;;21.00;34.60;;;;;;5010878;28;20025;-81
2022/05/29 12:43:34;;;;;;;15.55;14.85;;;20.60;33.80;;;;;;4996221;28;20048;-81
2022/05/29 12:46:19;;;;;;;14.07;13.38;;;20.20;34.30;;;;;;5041893;28;20044;-81
2022/05/29 12:49:11;;;;;;;14.13;13.32;;;20.20;34.70;;;;;;5026668;28;20034;-81
2022/05/29 12:52:16;;;;;;;13.93;13.23;;;20.40;34.00;;;;;;5024149;28;20396;-81
2022/05/29 12:55:01;;;;;;;15.55;14.80;;;20.30;34.80;;;;;;5027637;28;20042;-81
2022/05/29 12:57:42;;;;;;;13.50;12.70;;;20.00;35.30;;;;;;5010724;28;20084;-80
2022/05/29 13:00:17;;;;;;;17.48;16.60;;;20.00;36.10;;;;;;5012999;28;20511;-81
2022/05/29 13:03:19;;;;;;;13.68;12.68;;;20.30;34.90;;;;;;4988633;28;20053;-80
2022/05/29 13:06:08;;;;;;;13.75;13.05;;;20.20;34.30;;;;;;5007229;28;20037;-81
2022/05/29 13:09:10;;;;;;;14.05;13.35;;;20.40;34.00;;;;;;5024132;28;20042;-81
2022/05/29 13:11:38;;;;;;;13.48;12.77;;;20.40;32.90;;;;;;5040768;28;20432;-81
2022/05/29 13:14:05;;;;;;;14.68;13.88;;;20.40;34.20;;;;;;5024434;28;20041;-80
2022/05/29 13:16:33;;;;;;;14.90;13.93;;;20.30;33.70;;;;;;5026533;28;20124;-80
2022/05/29 13:19:21;;;;;;;14.43;13.63;;;20.00;33.70;;;;;;5041782;28;20415;-80
2022/05/29 13:22:01;;;;;;;13.73;13.00;;;19.80;35.00;;;;;;5022783;28;20392;-80
2022/05/29 13:24:31;;;;;;;14.07;13.27;;;20.00;35.20;;;;;;5027746;28;20531;-81
2022/05/29 13:27:09;;;;;;;15.68;14.88;;;20.10;35.30;;;;;;5040626;28;20033;-80
2022/05/29 13:29:38;;;;;;;13.82;13.18;;;20.30;34.80;;;;;;5026262;28;20057;-80
2022/05/29 13:32:13;;;;;;;13.77;12.93;;;19.90;35.40;;;;;;5026064;28;20044;-81
2022/05/29 13:34:46;;;;;;;14.43;13.50;;;20.00;35.00;;;;;;5026485;28;20041;-80
2022/05/29 13:37:24;;;;;;;14.18;13.48;;;20.20;33.50;;;;;;5010304;28;20028;-81
2022/05/29 13:40:02;;;;;;;15.75;15.00;;;20.40;33.70;;;;;;5028710;28;20033;-80